Time;durP1;ratioP1;P1;durP2;ratioP2;P2;SDS_P1;SDS_P2;PMS_P1;PMS_P2;Temp;Humidity;BMP_temperature;BMP_pressure;BME280_temperature;BME280_humidity;BME280_pressure;Samples;Min_cycle;Max_cycle;Signal;HPM_P1;HPM_P2
2022/12/11 00:00:48;;;;;;;122.47;62.55;;;;;;;-4.53;73.22;100807.56;1692226;84;21144;-82
2022/12/11 00:03:16;;;;;;;117.67;61.33;;;;;;;-4.54;73.25;100809.64;1691077;82;21289;-82
2022/12/11 00:05:43;;;;;;;116.95;62.48;;;;;;;-4.53;73.33;100815.66;1685674;84;21052;-80
2022/12/11 00:08:10;;;;;;;117.13;61.63;;;;;;;-4.47;73.43;100815.29;1686478;84;21778;-81
2022/12/11 00:10:37;;;;;;;115.97;57.83;;;;;;;-4.43;73.45;100809.64;1683462;84;21096;-81
2022/12/11 00:13:04;;;;;;;116.40;61.30;;;;;;;-4.34;73.53;100814.28;1658353;84;21834;-81
2022/12/11 00:15:31;;;;;;;122.37;62.80;;;;;;;-4.26;73.62;100820.98;1687265;84;21530;-81
2022/12/11 00:17:57;;;;;;;120.25;61.33;;;;;;;-4.13;73.67;100826.75;1686386;84;21656;-81
2022/12/11 00:20:24;;;;;;;120.65;61.20;;;;;;;-4.00;73.61;100814.55;1686912;84;21761;-80
2022/12/11 00:22:51;;;;;;;114.60;60.52;;;;;;;-3.90;73.55;100815.86;1716385;83;21091;-80
2022/12/11 00:25:18;;;;;;;119.77;63.50;;;;;;;-3.76;73.64;100820.45;1745279;81;21027;-81
2022/12/11 00:27:46;;;;;;;119.42;64.07;;;;;;;-3.66;73.59;100814.78;1689646;84;21027;-80
2022/12/11 00:30:13;;;;;;;120.70;62.83;;;;;;;-3.52;73.58;100818.11;1683060;84;21464;-81
2022/12/11 00:32:41;;;;;;;116.05;60.15;;;;;;;-3.37;73.62;100814.61;1684671;84;21781;-81
2022/12/11 00:35:08;;;;;;;120.05;62.13;;;;;;;-3.27;73.43;100814.56;1686895;84;21084;-80
2022/12/11 00:37:35;;;;;;;115.90;63.98;;;;;;;-3.27;73.07;100810.70;1687614;84;21044;-80
2022/12/11 00:40:02;;;;;;;113.95;59.85;;;;;;;-3.23;73.18;100811.85;1661310;84;21075;-81
2022/12/11 00:42:29;;;;;;;116.28;60.98;;;;;;;-3.16;73.09;100813.75;1688202;84;21604;-80
2022/12/11 00:44:56;;;;;;;116.75;60.58;;;;;;;-3.22;73.02;100799.11;1684352;84;21770;-81
2022/12/11 00:47:23;;;;;;;121.20;63.78;;;;;;;-3.05;73.03;100812.05;1687007;84;21261;-81
2022/12/11 00:49:50;;;;;;;114.80;62.40;;;;;;;-2.96;73.16;100811.89;1687196;84;21056;-81
2022/12/11 00:52:17;;;;;;;116.20;61.80;;;;;;;-2.87;73.09;100821.64;1688231;84;21084;-81
2022/12/11 00:54:43;;;;;;;111.40;60.70;;;;;;;-2.80;72.98;100819.15;1686804;84;21246;-87
2022/12/11 00:57:10;;;;;;;114.00;59.60;;;;;;;-2.78;72.80;100817.22;1685278;84;21837;-81
2022/12/11 00:59:37;;;;;;;109.83;58.38;;;;;;;-2.74;72.77;100813.18;1685617;84;21123;-87
2022/12/11 01:02:07;;;;;;;114.28;60.50;;;;;;;-2.64;72.90;100825.14;1686762;84;21494;-81
2022/12/11 01:04:35;;;;;;;115.57;63.02;;;;;;;-2.61;72.74;100818.55;1687277;84;21079;-81
2022/12/11 01:07:02;;;;;;;108.65;60.98;;;;;;;-2.56;72.67;100813.74;1686599;84;21063;-86
2022/12/11 01:12:14;;;;;;;114.67;61.68;;;;;;;-2.44;72.61;100803.48;1687104;84;21060;-86
2022/12/11 01:14:41;;;;;;;114.55;59.53;;;;;;;-2.39;72.49;100803.45;1688937;84;20990;-86
2022/12/11 01:17:08;;;;;;;106.15;58.73;;;;;;;-2.38;72.36;100803.98;1688115;84;21052;-86
2022/12/11 01:19:34;;;;;;;114.05;61.60;;;;;;;-2.37;72.24;100805.36;1688331;84;21076;-86
2022/12/11 01:22:01;;;;;;;110.08;59.70;;;;;;;-2.39;72.12;100795.31;1687685;84;21926;-81
2022/12/11 01:24:28;;;;;;;114.08;58.48;;;;;;;-2.36;72.24;100786.95;1665776;84;20978;-80
2022/12/11 01:26:55;;;;;;;111.20;58.15;;;;;;;-2.30;72.33;100786.52;1678628;82;21082;-80
2022/12/11 01:29:21;;;;;;;107.12;57.55;;;;;;;-2.23;72.34;100785.81;1686162;82;21091;-80
2022/12/11 01:31:48;;;;;;;109.87;60.40;;;;;;;-2.20;72.22;100778.29;1648519;85;21484;-80
2022/12/11 01:34:15;;;;;;;115.62;60.55;;;;;;;-2.13;72.38;100780.06;1683787;84;21744;-80
2022/12/11 01:36:42;;;;;;;103.58;58.87;;;;;;;-2.09;72.10;100780.80;1678112;83;21190;-87
2022/12/11 01:39:09;;;;;;;108.22;58.23;;;;;;;-2.18;71.89;100777.12;1687445;83;21073;-86
2022/12/11 01:41:36;;;;;;;108.32;60.78;;;;;;;-2.21;71.96;100776.91;1659659;84;21321;-86
2022/12/11 01:44:09;;;;;;;114.88;61.15;;;;;;;-2.18;72.12;100780.98;1674567;84;21051;-86
2022/12/11 01:46:36;;;;;;;106.63;59.98;;;;;;;-2.13;72.17;100775.80;1675710;83;21729;-85
2022/12/11 01:49:06;;;;;;;110.88;59.77;;;;;;;-2.12;72.04;100782.77;1672966;84;21611;-86
2022/12/11 01:51:41;;;;;;;117.03;61.98;;;;;;;-2.08;72.18;100770.97;1668666;83;21083;-86
2022/12/11 01:54:10;;;;;;;112.50;60.78;;;;;;;-2.03;72.19;100774.41;1656511;84;21090;-86
2022/12/11 01:56:37;;;;;;;109.40;59.60;;;;;;;-1.99;72.04;100771.67;1677794;84;21150;-86
2022/12/11 01:59:06;;;;;;;110.83;62.03;;;;;;;-1.96;72.19;100768.93;1684024;84;21847;-86
2022/12/11 02:01:56;;;;;;;113.90;61.55;;;;;;;-1.88;72.16;100764.74;1684907;84;20990;-86
2022/12/11 02:04:22;;;;;;;107.97;60.63;;;;;;;-1.81;72.33;100763.13;1676704;84;21137;-86
2022/12/11 02:06:50;;;;;;;113.72;61.83;;;;;;;-1.73;72.19;100768.86;1651323;86;21542;-80
2022/12/11 02:09:21;;;;;;;108.55;61.65;;;;;;;-1.68;72.17;100759.38;1644681;85;21076;-80
2022/12/11 02:12:05;;;;;;;114.92;61.73;;;;;;;-1.65;72.05;100758.70;1657548;85;21838;-80
2022/12/11 02:15:15;;;;;;;103.97;59.93;;;;;;;-1.66;71.91;100753.94;1682520;84;21081;-80
2022/12/11 02:17:55;;;;;;;112.10;60.78;;;;;;;-1.66;71.86;100753.94;1682837;84;21068;-79
2022/12/11 02:20:35;;;;;;;110.90;59.40;;;;;;;-1.62;71.98;100757.24;1677369;84;21128;-80
2022/12/11 02:23:42;;;;;;;103.65;55.58;;;;;;;-1.57;72.02;100756.31;1675692;84;21101;-80
2022/12/11 02:26:39;;;;;;;104.17;54.40;;;;;;;-1.57;71.75;100763.65;1722418;81;21820;-79
2022/12/11 02:29:08;;;;;;;104.25;55.28;;;;;;;-1.61;71.69;100761.64;1724527;81;22066;-79
2022/12/11 02:31:41;;;;;;;106.30;56.23;;;;;;;-1.58;71.82;100749.34;1709803;81;21071;-79
2022/12/11 02:34:42;;;;;;;110.75;59.33;;;;;;;-1.55;71.90;100749.57;1724918;81;21425;-79
2022/12/11 02:37:13;;;;;;;95.17;56.02;;;;;;;-1.55;71.82;100758.61;1723958;81;21071;-80
2022/12/11 02:39:40;;;;;;;107.20;60.05;;;;;;;-1.52;71.90;100754.05;1720763;81;21776;-80
2022/12/11 02:42:07;;;;;;;106.95;56.98;;;;;;;-1.49;71.90;100754.28;1726196;81;21082;-80
2022/12/11 02:44:34;;;;;;;102.25;56.98;;;;;;;-1.57;71.78;100754.61;1703235;82;21075;-79
2022/12/11 02:47:02;;;;;;;106.30;58.78;;;;;;;-1.59;71.82;100757.48;1739349;81;22173;-86
2022/12/11 02:49:28;;;;;;;102.35;58.08;;;;;;;-1.53;72.16;100761.31;1727561;81;21059;-86
2022/12/11 02:51:55;;;;;;;100.40;57.45;;;;;;;-1.45;72.16;100759.77;1690652;82;21740;-86
2022/12/11 02:54:28;;;;;;;104.92;57.53;;;;;;;-1.38;72.21;100750.80;1724578;81;21099;-87
2022/12/11 02:57:36;;;;;;;109.10;61.63;;;;;;;-1.36;72.21;100755.68;1723385;81;21409;-86
2022/12/11 03:00:05;;;;;;;101.53;57.88;;;;;;;-1.27;72.44;100759.33;1709622;81;21611;-86
2022/12/11 03:02:32;;;;;;;117.60;62.40;;;;;;;-1.23;72.32;100760.94;1716288;81;21097;-79
2022/12/11 03:04:59;;;;;;;111.88;60.60;;;;;;;-1.21;72.28;100765.82;1718463;81;21743;-78
2022/12/11 03:07:32;;;;;;;103.05;58.87;;;;;;;-1.15;72.38;100764.47;1726301;81;21051;-85
2022/12/11 03:09:59;;;;;;;113.37;60.83;;;;;;;-1.08;72.47;100762.84;1728691;81;21107;-79
2022/12/11 03:12:35;;;;;;;110.30;58.63;;;;;;;-1.06;72.24;100766.02;1725959;81;21586;-86
2022/12/11 03:15:09;;;;;;;107.12;65.80;;;;;;;-1.09;72.18;100758.45;1720742;81;21115;-86
2022/12/11 03:17:56;;;;;;;106.97;59.03;;;;;;;-1.07;72.21;100751.33;1724280;81;22586;-86
2022/12/11 03:20:46;;;;;;;108.15;60.80;;;;;;;-1.05;72.25;100750.13;1736899;81;21000;-85
2022/12/11 03:23:41;;;;;;;104.03;58.15;;;;;;;-0.99;72.42;100747.59;1727809;81;20978;-84
2022/12/11 03:26:13;;;;;;;106.22;58.73;;;;;;;-0.95;72.25;100747.42;1710975;82;21038;-85
2022/12/11 03:28:51;;;;;;;93.52;55.58;;;;;;;-0.96;72.22;100748.19;1716744;82;21080;-84
2022/12/11 03:31:28;;;;;;;88.30;49.23;;;;;;;-0.95;72.29;100747.82;1712364;82;21778;-86
2022/12/11 03:33:57;;;;;;;90.50;52.23;;;;;;;-0.99;72.19;100741.13;1721220;82;22010;-85
2022/12/11 03:36:26;;;;;;;89.45;52.08;;;;;;;-0.92;72.40;100742.48;1718873;82;21030;-85
2022/12/11 03:38:57;;;;;;;99.42;55.85;;;;;;;-0.87;72.48;100735.04;1723837;82;21040;-85
2022/12/11 03:41:25;;;;;;;94.95;54.53;;;;;;;-0.83;72.46;100739.22;1701527;82;21012;-85
2022/12/11 03:43:55;;;;;;;96.32;57.13;;;;;;;-0.82;72.49;100742.33;1720557;82;21718;-85
2022/12/11 03:46:24;;;;;;;90.35;51.85;;;;;;;-0.78;72.45;100738.27;1717007;82;20986;-85
2022/12/11 03:48:51;;;;;;;87.27;50.78;;;;;;;-0.79;72.44;100732.21;1715099;82;20988;-85
2022/12/11 03:51:18;;;;;;;85.85;49.85;;;;;;;-0.73;72.51;100731.74;1708085;83;20979;-88
2022/12/11 03:53:44;;;;;;;94.92;53.65;;;;;;;-0.70;72.56;100732.34;1713221;82;21018;-85
2022/12/11 03:56:11;;;;;;;99.47;54.93;;;;;;;-0.69;72.57;100731.56;1709062;82;21701;-85
2022/12/11 03:58:38;;;;;;;99.00;55.48;;;;;;;-0.72;72.38;100727.05;1719509;82;21450;-85
2022/12/11 04:01:10;;;;;;;94.28;55.43;;;;;;;-0.76;72.31;100727.64;1722740;82;21111;-86
2022/12/11 04:03:37;;;;;;;94.40;57.13;;;;;;;-0.80;72.37;100730.80;1713812;82;21092;-86
2022/12/11 04:06:05;;;;;;;103.62;57.55;;;;;;;-0.80;72.44;100730.41;1716727;82;21552;-79
2022/12/11 04:08:31;;;;;;;102.10;57.33;;;;;;;-0.81;72.48;100730.29;1709282;82;21865;-78
2022/12/11 04:13:43;;;;;;;95.35;56.42;;;;;;;-0.87;72.25;100731.16;1718363;82;21039;-79
2022/12/11 04:16:10;;;;;;;102.58;56.60;;;;;;;-0.92;72.31;100726.05;1718387;82;21078;-79
2022/12/11 04:24:16;;;;;;;92.60;51.37;;;;;;;-0.92;72.50;100714.06;1723899;81;21080;-79
2022/12/11 04:26:44;;;;;;;87.42;48.90;;;;;;;-0.95;72.31;100716.41;1718665;82;22025;-78
2022/12/11 04:29:12;;;;;;;85.90;51.15;;;;;;;-1.02;72.10;100719.34;1710122;82;21081;-80
2022/12/11 04:31:38;;;;;;;90.95;52.85;;;;;;;-1.17;72.04;100719.16;1709348;82;21103;-81
2022/12/11 04:34:05;;;;;;;84.05;49.13;;;;;;;-1.18;72.29;100728.59;1716980;82;21702;-81
2022/12/11 04:36:32;;;;;;;95.28;52.30;;;;;;;-1.20;72.09;100730.58;1693377;82;21144;-81
2022/12/11 04:38:58;;;;;;;88.10;50.52;;;;;;;-1.24;72.21;100737.21;1703855;82;21102;-81
2022/12/11 04:41:25;;;;;;;86.12;50.08;;;;;;;-1.24;72.22;100733.70;1711379;82;21411;-82
2022/12/11 04:43:52;;;;;;;90.72;49.23;;;;;;;-1.26;72.23;100730.12;1720515;82;22101;-81
2022/12/11 04:46:20;;;;;;;86.10;49.38;;;;;;;-1.26;72.24;100728.83;1709479;82;21812;-81
2022/12/11 04:48:49;;;;;;;87.75;49.23;;;;;;;-1.28;72.26;100725.24;1703831;82;21081;-81
2022/12/11 04:51:16;;;;;;;78.55;47.35;;;;;;;-1.25;72.46;100721.60;1713467;82;22030;-88
2022/12/11 04:53:43;;;;;;;82.72;49.08;;;;;;;-1.15;72.64;100723.14;1711023;82;21238;-81
2022/12/11 04:56:12;;;;;;;85.07;49.77;;;;;;;-1.18;72.34;100719.97;1709042;82;21093;-81
2022/12/11 04:58:39;;;;;;;82.55;47.62;;;;;;;-1.19;72.42;100719.45;1709465;82;21853;-81
2022/12/11 05:01:14;;;;;;;81.63;46.23;;;;;;;-1.17;72.54;100720.05;1716033;82;21373;-87
2022/12/11 05:03:41;;;;;;;82.47;48.00;;;;;;;-1.08;72.59;100717.63;1705772;83;21058;-86
2022/12/11 05:06:08;;;;;;;82.70;46.60;;;;;;;-1.02;72.63;100711.20;1713268;82;21156;-86
2022/12/11 05:08:36;;;;;;;82.97;48.05;;;;;;;-0.99;72.57;100703.67;1716191;82;21093;-86
2022/12/11 05:11:05;;;;;;;78.60;46.37;;;;;;;-0.98;72.54;100707.14;1708607;82;21930;-85
2022/12/11 05:13:32;;;;;;;78.42;45.45;;;;;;;-0.97;72.52;100708.95;1718005;81;21102;-85
2022/12/11 05:15:59;;;;;;;81.75;48.00;;;;;;;-0.94;72.58;100704.38;1718927;82;21073;-85
2022/12/11 05:18:26;;;;;;;82.62;46.60;;;;;;;-0.92;72.67;100694.68;1715141;82;21665;-85
2022/12/11 05:20:58;;;;;;;76.53;46.35;;;;;;;-0.85;72.74;100690.81;1712783;82;21133;-85
2022/12/11 05:23:25;;;;;;;78.67;47.50;;;;;;;-0.87;72.48;100693.69;1708619;82;22058;-85
2022/12/11 05:25:56;;;;;;;80.77;46.28;;;;;;;-0.91;72.49;100702.91;1693105;83;21130;-85
2022/12/11 05:28:23;;;;;;;85.05;47.48;;;;;;;-0.85;72.62;100699.86;1690038;83;21053;-86
2022/12/11 05:30:58;;;;;;;74.70;45.92;;;;;;;-0.81;72.70;100700.56;1695542;83;21042;-85
2022/12/11 05:33:24;;;;;;;81.53;47.48;;;;;;;-0.82;72.59;100689.34;1688755;83;21120;-85
2022/12/11 05:35:51;;;;;;;78.95;47.70;;;;;;;-0.81;72.72;100682.11;1689098;83;21775;-86
2022/12/11 05:38:18;;;;;;;83.67;48.98;;;;;;;-0.84;72.49;100687.45;1691489;83;21027;-86
2022/12/11 05:41:01;;;;;;;86.57;49.65;;;;;;;-0.89;72.54;100677.19;1688981;83;21045;-86
2022/12/11 05:43:29;;;;;;;83.37;47.80;;;;;;;-0.90;72.65;100675.38;1688833;83;21117;-79
2022/12/11 05:45:56;;;;;;;84.58;50.78;;;;;;;-0.95;72.58;100674.19;1688380;83;21113;-79
2022/12/11 05:48:23;;;;;;;84.60;48.48;;;;;;;-1.07;72.54;100679.00;1632836;85;22876;-79
2022/12/11 05:50:58;;;;;;;81.45;47.25;;;;;;;-1.05;72.83;100684.25;1684692;83;21622;-79
2022/12/11 05:53:25;;;;;;;73.90;45.40;;;;;;;-0.99;73.10;100685.59;1660723;84;21289;-86
2022/12/11 05:55:52;;;;;;;73.02;44.60;;;;;;;-0.92;73.08;100681.76;1689503;84;21093;-86
2022/12/11 05:58:19;;;;;;;81.05;44.33;;;;;;;-0.94;72.89;100679.43;1688155;83;21069;-80
2022/12/11 06:00:46;;;;;;;76.22;44.40;;;;;;;-0.93;73.11;100676.08;1691029;83;21927;-85
2022/12/11 06:03:13;;;;;;;74.47;44.30;;;;;;;-0.81;73.25;100687.65;1695429;83;21336;-79
2022/12/11 06:05:40;;;;;;;70.92;43.45;;;;;;;-0.84;73.10;100674.13;1691778;83;21099;-79
2022/12/11 06:08:07;;;;;;;71.97;41.95;;;;;;;-0.79;73.16;100675.73;1700289;83;21079;-85
2022/12/11 06:10:34;;;;;;;71.90;42.40;;;;;;;-0.71;73.34;100677.17;1693393;83;21069;-86
2022/12/11 06:13:01;;;;;;;67.10;41.48;;;;;;;-0.68;73.13;100681.64;1695254;83;21756;-86
2022/12/11 06:15:28;;;;;;;67.35;39.70;;;;;;;-0.72;73.09;100677.95;1695517;83;21080;-85
2022/12/11 06:17:55;;;;;;;71.85;42.50;;;;;;;-0.70;73.23;100678.05;1691020;83;21666;-79
2022/12/11 06:20:22;;;;;;;69.40;41.65;;;;;;;-0.65;73.34;100672.41;1693691;83;21061;-79
2022/12/11 06:22:48;;;;;;;72.78;44.23;;;;;;;-0.59;73.37;100667.66;1697481;83;21486;-85
2022/12/11 06:25:15;;;;;;;71.47;43.28;;;;;;;-0.53;73.42;100668.46;1698182;81;21741;-85
2022/12/11 06:27:42;;;;;;;68.55;41.42;;;;;;;-0.49;73.40;100666.98;1704440;82;21974;-85
2022/12/11 06:30:10;;;;;;;71.85;41.33;;;;;;;-0.48;73.36;100663.22;1709702;82;21073;-85
2022/12/11 06:32:37;;;;;;;67.17;39.83;;;;;;;-0.42;73.44;100661.44;1712956;82;21611;-85
2022/12/11 06:35:05;;;;;;;68.50;42.23;;;;;;;-0.40;73.45;100667.20;1710742;82;21132;-85
2022/12/11 06:37:33;;;;;;;68.67;42.23;;;;;;;-0.34;73.38;100656.78;1714624;82;21730;-79
2022/12/11 06:40:01;;;;;;;76.53;43.63;;;;;;;-0.33;73.47;100664.65;1687490;82;38731;-79
2022/12/11 06:42:29;;;;;;;82.10;47.40;;;;;;;-0.31;73.41;100657.88;1701744;82;21283;-85
2022/12/11 06:44:58;;;;;;;81.78;46.50;;;;;;;-0.27;73.48;100665.05;1709661;82;21086;-79
2022/12/11 06:47:27;;;;;;;76.67;44.73;;;;;;;-0.25;73.49;100667.34;1716137;82;21034;-79
2022/12/11 06:49:53;;;;;;;72.10;41.50;;;;;;;-0.21;73.52;100668.44;1709570;82;23291;-80
2022/12/11 06:52:21;;;;;;;67.65;41.68;;;;;;;-0.18;73.45;100684.17;1710463;82;21093;-79
2022/12/11 06:54:48;;;;;;;75.03;42.10;;;;;;;-0.16;73.49;100680.00;1708603;82;21038;-79
2022/12/11 06:57:16;;;;;;;69.42;41.53;;;;;;;-0.11;73.53;100679.91;1710533;82;21051;-86
2022/12/11 06:59:43;;;;;;;70.75;40.90;;;;;;;-0.11;73.39;100681.20;1710718;82;21526;-86
2022/12/11 07:02:13;;;;;;;68.75;40.33;;;;;;;-0.15;73.41;100680.52;1714369;82;21732;-85
2022/12/11 07:04:41;;;;;;;60.23;37.08;;;;;;;-0.13;73.54;100676.70;1714798;82;21029;-85
2022/12/11 07:07:07;;;;;;;66.62;38.13;;;;;;;-0.10;73.60;100674.34;1708719;82;21057;-86
2022/12/11 07:09:37;;;;;;;55.85;35.13;;;;;;;-0.09;73.65;100665.80;1707104;82;21042;-85
2022/12/11 07:12:05;;;;;;;48.70;30.15;;;;;;;-0.16;73.68;100645.08;1711047;82;21038;-85
2022/12/11 07:14:32;;;;;;;42.33;27.27;;;;;;;-0.04;73.78;100667.89;1708228;82;21764;-87
2022/12/11 07:16:59;;;;;;;39.13;24.20;;;;;;;-0.08;73.77;100655.52;1722121;82;21572;-86
2022/12/11 07:19:26;;;;;;;34.80;23.38;;;;;;;-0.03;73.79;100666.19;1706122;82;21050;-87
2022/12/11 07:21:53;;;;;;;35.65;22.17;;;;;;;-0.04;73.84;100666.97;1714053;82;21125;-82
2022/12/11 07:24:20;;;;;;;53.00;30.40;;;;;;;-0.04;73.92;100664.01;1708231;82;21057;-81
2022/12/11 07:26:48;;;;;;;92.17;52.67;;;;;;;-0.01;74.06;100665.48;1698551;81;21388;-80
2022/12/11 07:29:14;;;;;;;73.60;42.53;;;;;;;0.03;74.13;100660.11;1727955;81;21036;-79
2022/12/11 07:31:41;;;;;;;103.78;51.70;;;;;;;0.12;74.33;100664.59;1725139;81;21051;-79
2022/12/11 07:34:10;;;;;;;109.57;58.80;;;;;;;0.11;74.02;100664.12;1712677;80;21570;-79
2022/12/11 07:36:37;;;;;;;116.47;60.05;;;;;;;0.05;73.96;100659.81;1727109;81;21079;-79
2022/12/11 07:39:04;;;;;;;120.40;62.15;;;;;;;0.07;74.10;100656.92;1723409;81;21792;-79
2022/12/11 07:41:31;;;;;;;133.15;66.87;;;;;;;0.10;74.08;100653.25;1723447;81;21122;-79
2022/12/11 07:43:58;;;;;;;124.33;63.80;;;;;;;0.10;74.03;100648.08;1715437;81;21077;-79
2022/12/11 07:46:28;;;;;;;100.80;57.55;;;;;;;0.06;74.06;100647.80;1721613;81;21085;-79
2022/12/11 07:48:54;;;;;;;86.65;53.92;;;;;;;0.08;74.07;100652.67;1742948;81;21127;-80
2022/12/11 07:51:26;;;;;;;79.85;47.75;;;;;;;0.04;74.03;100656.75;1718147;81;21193;-80
2022/12/11 07:53:58;;;;;;;70.17;41.58;;;;;;;0.07;74.16;100650.45;1727096;81;21075;-81
2022/12/11 07:56:25;;;;;;;62.30;38.73;;;;;;;0.11;74.20;100654.14;1739539;81;21064;-81
2022/12/11 07:58:52;;;;;;;58.15;36.17;;;;;;;0.12;74.15;100648.19;1729029;81;21105;-81
2022/12/11 08:01:24;;;;;;;58.85;35.63;;;;;;;0.17;74.17;100646.39;1718820;82;21650;-80
2022/12/11 08:03:52;;;;;;;65.95;39.10;;;;;;;0.23;74.20;100653.66;1729677;81;22586;-80
2022/12/11 08:06:20;;;;;;;69.85;40.70;;;;;;;0.30;74.18;100654.55;1731362;81;21137;-80
2022/12/11 08:08:47;;;;;;;77.27;42.90;;;;;;;0.32;74.07;100655.92;1705813;81;21086;-80
2022/12/11 08:11:14;;;;;;;77.20;41.42;;;;;;;0.33;73.92;100666.79;1725926;81;21854;-81
2022/12/11 08:13:41;;;;;;;63.15;34.98;;;;;;;0.30;73.83;100666.58;1718429;81;21038;-81
2022/12/11 08:16:10;;;;;;;59.88;33.50;;;;;;;0.31;73.75;100664.50;1725296;81;21163;-80
2022/12/11 08:18:37;;;;;;;51.73;31.65;;;;;;;0.31;73.76;100656.73;1725571;81;21683;-87
2022/12/11 08:21:06;;;;;;;46.50;29.85;;;;;;;0.33;73.79;100657.31;1742000;81;21286;-86
2022/12/11 08:23:33;;;;;;;51.00;31.20;;;;;;;0.38;73.82;100658.52;1736839;81;21036;-86
2022/12/11 08:26:03;;;;;;;55.90;34.33;;;;;;;0.46;73.71;100669.77;1682131;83;21082;-86
2022/12/11 08:28:30;;;;;;;47.80;29.60;;;;;;;0.38;73.41;100667.98;1696783;83;21787;-85
2022/12/11 08:30:57;;;;;;;39.80;26.97;;;;;;;0.34;73.32;100673.77;1695280;83;21044;-85
2022/12/11 08:33:24;;;;;;;49.93;29.77;;;;;;;0.28;73.26;100677.23;1657256;85;21601;-87
2022/12/11 08:35:51;;;;;;;36.77;22.77;;;;;;;0.30;73.34;100680.81;1630692;87;21060;-80
2022/12/11 08:38:18;;;;;;;28.80;19.57;;;;;;;0.31;73.22;100678.34;1691848;83;21044;-80
2022/12/11 08:40:45;;;;;;;27.93;18.60;;;;;;;0.29;73.16;100686.41;1636054;85;21752;-79
2022/12/11 08:43:12;;;;;;;30.48;19.87;;;;;;;0.26;73.06;100686.59;1634890;86;21101;-80
2022/12/11 08:45:40;;;;;;;26.90;17.77;;;;;;;0.27;73.12;100691.00;1648450;86;21062;-82
2022/12/11 08:48:07;;;;;;;29.92;18.05;;;;;;;0.22;72.87;100691.09;1615610;86;21668;-86
2022/12/11 08:50:34;;;;;;;26.27;18.23;;;;;;;0.21;73.02;100693.16;1647625;86;21085;-78
2022/12/11 08:53:02;;;;;;;25.10;16.97;;;;;;;0.22;73.02;100697.56;1626494;86;22028;-85
2022/12/11 08:55:30;;;;;;;21.52;15.15;;;;;;;0.16;72.83;100695.47;1649209;86;21075;-87
2022/12/11 08:57:57;;;;;;;19.50;13.83;;;;;;;0.13;72.83;100692.66;1627756;86;22131;-84
2022/12/11 09:00:26;;;;;;;19.20;13.83;;;;;;;0.09;72.81;100685.09;1660556;86;21179;-79
2022/12/11 09:02:52;;;;;;;22.20;14.68;;;;;;;0.04;72.75;100689.47;1614777;86;21126;-81
2022/12/11 09:05:19;;;;;;;22.32;15.18;;;;;;;0.04;72.93;100686.51;1696219;83;21210;-79
2022/12/11 09:07:46;;;;;;;21.30;13.95;;;;;;;0.11;73.05;100690.38;1692702;83;21293;-84
2022/12/11 09:10:14;;;;;;;20.80;14.95;;;;;;;0.14;72.94;100688.00;1655884;85;21122;-88
2022/12/11 09:12:41;;;;;;;21.12;14.30;;;;;;;0.15;72.94;100689.41;1702390;83;21078;-87
2022/12/11 09:15:09;;;;;;;19.23;13.22;;;;;;;0.17;72.88;100687.80;1702463;83;21113;-88
2022/12/11 09:17:35;;;;;;;18.85;12.58;;;;;;;0.22;72.95;100684.20;1696875;83;22609;-87
2022/12/11 09:20:03;;;;;;;19.67;13.20;;;;;;;0.22;72.74;100693.67;1691070;83;21559;-88
2022/12/11 09:22:32;;;;;;;20.72;14.00;;;;;;;0.17;72.82;100688.21;1696669;83;21086;-87
2022/12/11 09:24:59;;;;;;;19.35;13.00;;;;;;;0.22;72.84;100691.09;1691086;83;21073;-88
2022/12/11 09:27:26;;;;;;;20.72;13.65;;;;;;;0.23;72.80;100678.25;1677371;84;21187;-86
2022/12/11 09:29:56;;;;;;;19.42;13.48;;;;;;;0.24;72.83;100684.31;1684066;84;22622;-86
2022/12/11 09:32:25;;;;;;;19.32;13.68;;;;;;;0.26;72.83;100674.95;1672151;84;21084;-86
2022/12/11 09:34:52;;;;;;;18.85;12.80;;;;;;;0.23;72.75;100667.00;1682241;84;21126;-82
2022/12/11 09:37:20;;;;;;;18.62;13.68;;;;;;;0.24;72.85;100663.60;1691078;84;21065;-82
2022/12/11 09:39:47;;;;;;;23.70;15.10;;;;;;;0.32;72.93;100665.91;1685227;84;21404;-84
2022/12/11 09:42:21;;;;;;;19.87;14.33;;;;;;;0.34;72.85;100657.83;1727171;81;21788;-86
2022/12/11 09:44:58;;;;;;;24.37;14.80;;;;;;;0.41;72.93;100659.11;1733030;81;21994;-85
2022/12/11 09:47:48;;;;;;;23.10;15.60;;;;;;;0.50;73.00;100658.80;1743594;81;21063;-86
2022/12/11 09:50:25;;;;;;;19.15;14.40;;;;;;;0.55;72.87;100658.30;1713837;81;21679;-83
2022/12/11 09:53:17;;;;;;;22.62;14.80;;;;;;;0.63;72.92;100657.89;1731559;81;21114;-85
2022/12/11 09:56:18;;;;;;;24.02;15.70;;;;;;;0.73;72.93;100659.88;1724698;81;21808;-91
2022/12/11 09:59:12;;;;;;;26.77;17.73;;;;;;;0.79;72.79;100661.95;1729443;81;21170;-90
2022/12/11 10:02:02;;;;;;;57.33;32.93;;;;;;;0.76;72.58;100652.27;1732531;81;22034;-89
2022/12/11 10:05:17;;;;;;;36.03;22.50;;;;;;;0.71;72.46;100647.60;1720259;81;21096;-88
2022/12/11 10:07:50;;;;;;;;;;;;;;;0.71;72.62;100648.52;1728368;80;21073;-87
2022/12/11 10:10:42;;;;;;;27.27;18.40;;;;;;;0.68;72.44;100647.44;1729886;81;21737;-81
2022/12/11 10:13:35;;;;;;;27.90;17.75;;;;;;;0.65;72.47;100648.11;1716359;81;21075;-84
2022/12/11 10:16:16;;;;;;;33.58;20.48;;;;;;;0.65;72.67;100644.64;1674692;84;21187;-87
2022/12/11 10:18:44;;;;;;;40.55;25.10;;;;;;;0.74;72.81;100643.52;1624470;86;21252;-86
2022/12/11 10:21:11;;;;;;;24.57;15.93;;;;;;;0.84;73.08;100639.79;1622752;87;21602;-85
2022/12/11 10:23:57;;;;;;;49.18;27.70;;;;;;;0.84;72.73;100639.79;1627474;87;21725;-84
2022/12/11 10:26:24;;;;;;;17.80;12.73;;;;;;;0.84;72.89;100635.02;1622368;86;21618;-81
2022/12/11 10:28:53;;;;;;;18.20;13.03;;;;;;;0.93;73.07;100635.59;1620920;87;21089;-85
2022/12/11 10:31:47;;;;;;;17.82;12.03;;;;;;;0.97;73.03;100634.56;1625806;87;21081;-82
2022/12/11 10:34:26;;;;;;;15.08;11.30;;;;;;;0.99;73.11;100635.95;1629929;87;21163;-85
2022/12/11 10:36:52;;;;;;;17.07;11.80;;;;;;;0.99;72.82;100626.00;1618963;87;23593;-86
2022/12/11 10:39:21;;;;;;;14.28;10.68;;;;;;;0.89;72.92;100621.95;1616200;87;21414;-87
2022/12/11 10:41:50;;;;;;;14.90;11.30;;;;;;;0.89;73.00;100621.95;1627916;86;21749;-81
2022/12/11 10:44:29;;;;;;;15.78;9.93;;;;;;;0.79;72.97;100612.73;1621581;87;21112;-84
2022/12/11 10:47:13;;;;;;;16.62;9.95;;;;;;;0.72;73.09;100599.78;1629760;86;21348;-82
2022/12/11 10:50:00;;;;;;;13.00;8.75;;;;;;;0.65;73.39;100591.53;1628982;86;21769;-89
2022/12/11 10:52:44;;;;;;;10.75;7.65;;;;;;;0.68;73.66;100588.73;1643385;86;21374;-85
2022/12/11 10:55:32;;;;;;;11.22;7.78;;;;;;;0.74;73.70;100575.27;1645517;82;28819;-89
2022/12/11 10:58:02;;;;;;;9.43;6.78;;;;;;;0.75;73.80;100571.86;1723223;81;20977;-82
2022/12/11 11:00:40;;;;;;;8.50;6.03;;;;;;;0.78;73.71;100569.05;1742711;81;20976;-81
2022/12/11 11:03:23;;;;;;;11.25;7.55;;;;;;;0.78;73.87;100567.76;1732675;81;21698;-89
2022/12/11 11:05:52;;;;;;;9.47;6.60;;;;;;;0.93;74.10;100555.25;1723643;81;21075;-87
2022/12/11 11:08:23;;;;;;;12.73;7.95;;;;;;;0.93;74.10;100555.25;1699263;81;21032;-87
2022/12/11 11:10:56;;;;;;;10.53;7.58;;;;;;;1.00;74.19;100550.94;1734322;81;21437;-79
2022/12/11 11:13:25;;;;;;;11.33;7.43;;;;;;;1.10;74.21;100552.37;1713658;81;21538;-89
2022/12/11 11:16:08;;;;;;;9.68;6.08;;;;;;;1.15;74.21;100528.52;1723539;81;22161;-89
2022/12/11 11:18:35;;;;;;;7.90;5.97;;;;;;;1.32;74.14;100543.77;1727426;81;20978;-89
2022/12/11 11:21:02;;;;;;;10.55;5.97;;;;;;;1.36;74.03;100535.35;1716221;81;21054;-88
2022/12/11 11:23:28;;;;;;;7.72;5.20;;;;;;;1.43;73.87;100537.03;1649494;84;21849;-93
2022/12/11 11:26:01;;;;;;;7.22;4.92;;;;;;;1.36;73.64;100535.77;1670118;84;21681;-91
2022/12/11 11:28:31;;;;;;;6.62;5.80;;;;;;;1.32;73.72;100532.09;1651579;84;21868;-82
2022/12/11 11:31:02;;;;;;;11.38;6.58;;;;;;;1.32;73.87;100526.02;1684464;82;21125;-82
2022/12/11 11:33:29;;;;;;;9.35;6.62;;;;;;;1.36;74.04;100519.79;1680692;82;21133;-89
2022/12/11 11:36:00;;;;;;;8.30;5.90;;;;;;;1.39;73.99;100515.59;1684093;83;21310;-89
2022/12/11 11:38:42;;;;;;;11.22;6.80;;;;;;;1.36;73.88;100513.31;1687098;82;21111;-90